sensor_id;sensor_type;location;lat;lon;timestamp;P1;durP1;ratioP1;P2;durP2;ratioP2
75169;SDS011;63749;49.186;9.222;2023-04-06T00:00:30;18.35;;;9.63;;
75169;SDS011;63749;49.186;9.222;2023-04-06T00:02:56;19.40;;;9.90;;
75169;SDS011;63749;49.186;9.222;2023-04-06T00:05:21;18.50;;;9.93;;
75169;SDS011;63749;49.186;9.222;2023-04-06T00:07:47;20.27;;;10.00;;
75169;SDS011;63749;49.186;9.222;2023-04-06T00:10:13;22.10;;;10.17;;
75169;SDS011;63749;49.186;9.222;2023-04-06T00:12:38;22.43;;;11.17;;
75169;SDS011;63749;49.186;9.222;2023-04-06T00:15:04;21.55;;;11.02;;
75169;SDS011;63749;49.186;9.222;2023-04-06T00:17:30;21.37;;;11.20;;
75169;SDS011;63749;49.186;9.222;2023-04-06T00:19:56;23.70;;;10.82;;
75169;SDS011;63749;49.186;9.222;2023-04-06T00:22:21;22.80;;;11.17;;
75169;SDS011;63749;49.186;9.222;2023-04-06T00:24:47;23.27;;;10.73;;
75169;SDS011;63749;49.186;9.222;2023-04-06T00:27:12;22.73;;;10.93;;
75169;SDS011;63749;49.186;9.222;2023-04-06T00:29:39;19.90;;;10.90;;
75169;SDS011;63749;49.186;9.222;2023-04-06T00:32:04;28.07;;;11.53;;
75169;SDS011;63749;49.186;9.222;2023-04-06T00:34:30;24.10;;;11.50;;
75169;SDS011;63749;49.186;9.222;2023-04-06T00:36:56;20.53;;;10.97;;
75169;SDS011;63749;49.186;9.222;2023-04-06T00:39:21;24.40;;;11.43;;
75169;SDS011;63749;49.186;9.222;2023-04-06T00:41:49;21.85;;;11.13;;
75169;SDS011;63749;49.186;9.222;2023-04-06T00:44:16;22.67;;;11.38;;
75169;SDS011;63749;49.186;9.222;2023-04-06T00:46:41;24.43;;;11.00;;
75169;SDS011;63749;49.186;9.222;2023-04-06T00:49:07;25.03;;;11.00;;
75169;SDS011;63749;49.186;9.222;2023-04-06T00:51:32;23.93;;;11.63;;
75169;SDS011;63749;49.186;9.222;2023-04-06T00:53:58;22.23;;;11.23;;
75169;SDS011;63749;49.186;9.222;2023-04-06T00:56:23;23.93;;;11.70;;
75169;SDS011;63749;49.186;9.222;2023-04-06T00:58:49;24.53;;;11.13;;
75169;SDS011;63749;49.186;9.222;2023-04-06T01:01:15;20.73;;;10.82;;
75169;SDS011;63749;49.186;9.222;2023-04-06T01:03:41;21.83;;;10.95;;
75169;SDS011;63749;49.186;9.222;2023-04-06T01:06:07;22.47;;;11.60;;
75169;SDS011;63749;49.186;9.222;2023-04-06T01:08:32;22.55;;;11.40;;
75169;SDS011;63749;49.186;9.222;2023-04-06T01:10:59;20.90;;;10.93;;
75169;SDS011;63749;49.186;9.222;2023-04-06T01:13:26;23.35;;;11.13;;
75169;SDS011;63749;49.186;9.222;2023-04-06T01:15:52;23.70;;;10.50;;
75169;SDS011;63749;49.186;9.222;2023-04-06T01:18:17;21.83;;;11.00;;
75169;SDS011;63749;49.186;9.222;2023-04-06T01:20:43;22.80;;;10.93;;
75169;SDS011;63749;49.186;9.222;2023-04-06T01:23:08;24.83;;;11.73;;
75169;SDS011;63749;49.186;9.222;2023-04-06T01:25:33;23.83;;;11.43;;
75169;SDS011;63749;49.186;9.222;2023-04-06T01:27:59;23.40;;;11.03;;
75169;SDS011;63749;49.186;9.222;2023-04-06T01:30:25;23.63;;;11.33;;
75169;SDS011;63749;49.186;9.222;2023-04-06T01:32:50;21.83;;;11.25;;
75169;SDS011;63749;49.186;9.222;2023-04-06T01:35:17;26.53;;;11.57;;
75169;SDS011;63749;49.186;9.222;2023-04-06T01:37:43;21.13;;;11.02;;
75169;SDS011;63749;49.186;9.222;2023-04-06T01:40:09;22.83;;;11.60;;
75169;SDS011;63749;49.186;9.222;2023-04-06T01:42:35;21.55;;;10.98;;
75169;SDS011;63749;49.186;9.222;2023-04-06T01:45:00;23.53;;;10.70;;
75169;SDS011;63749;49.186;9.222;2023-04-06T01:47:26;20.97;;;10.33;;
75169;SDS011;63749;49.186;9.222;2023-04-06T01:49:51;22.63;;;10.93;;
75169;SDS011;63749;49.186;9.222;2023-04-06T01:52:17;24.65;;;11.40;;
75169;SDS011;63749;49.186;9.222;2023-04-06T01:54:42;24.43;;;11.57;;
75169;SDS011;63749;49.186;9.222;2023-04-06T01:57:09;21.77;;;11.50;;
75169;SDS011;63749;49.186;9.222;2023-04-06T01:59:35;21.50;;;11.40;;
75169;SDS011;63749;49.186;9.222;2023-04-06T02:02:01;23.08;;;11.43;;
75169;SDS011;63749;49.186;9.222;2023-04-06T02:04:26;21.97;;;11.17;;
75169;SDS011;63749;49.186;9.222;2023-04-06T02:06:51;24.83;;;11.47;;
75169;SDS011;63749;49.186;9.222;2023-04-06T02:09:17;22.97;;;11.63;;
75169;SDS011;63749;49.186;9.222;2023-04-06T02:11:42;21.80;;;11.63;;
75169;SDS011;63749;49.186;9.222;2023-04-06T02:14:08;23.60;;;12.02;;
75169;SDS011;63749;49.186;9.222;2023-04-06T02:16:33;24.93;;;11.70;;
75169;SDS011;63749;49.186;9.222;2023-04-06T02:18:58;23.13;;;11.97;;
75169;SDS011;63749;49.186;9.222;2023-04-06T02:21:24;23.43;;;12.10;;
75169;SDS011;63749;49.186;9.222;2023-04-06T02:23:49;25.13;;;11.93;;
75169;SDS011;63749;49.186;9.222;2023-04-06T02:26:14;24.03;;;12.27;;
75169;SDS011;63749;49.186;9.222;2023-04-06T02:28:40;23.83;;;11.75;;
75169;SDS011;63749;49.186;9.222;2023-04-06T02:31:06;23.07;;;11.63;;
75169;SDS011;63749;49.186;9.222;2023-04-06T02:33:32;24.38;;;12.23;;
75169;SDS011;63749;49.186;9.222;2023-04-06T02:35:57;24.33;;;12.10;;
75169;SDS011;63749;49.186;9.222;2023-04-06T02:38:23;28.10;;;12.80;;
75169;SDS011;63749;49.186;9.222;2023-04-06T02:40:48;24.38;;;12.55;;
75169;SDS011;63749;49.186;9.222;2023-04-06T02:43:13;25.83;;;12.63;;
75169;SDS011;63749;49.186;9.222;2023-04-06T02:45:40;27.92;;;13.48;;
75169;SDS011;63749;49.186;9.222;2023-04-06T02:48:05;27.37;;;13.67;;
75169;SDS011;63749;49.186;9.222;2023-04-06T02:50:31;27.30;;;13.77;;
75169;SDS011;63749;49.186;9.222;2023-04-06T02:52:56;27.37;;;13.10;;
75169;SDS011;63749;49.186;9.222;2023-04-06T02:55:21;25.53;;;12.67;;
75169;SDS011;63749;49.186;9.222;2023-04-06T02:57:47;24.97;;;12.23;;
75169;SDS011;63749;49.186;9.222;2023-04-06T03:00:12;24.20;;;11.57;;
75169;SDS011;63749;49.186;9.222;2023-04-06T03:02:38;24.43;;;11.60;;
75169;SDS011;63749;49.186;9.222;2023-04-06T03:05:03;22.87;;;11.97;;
75169;SDS011;63749;49.186;9.222;2023-04-06T03:07:29;24.95;;;12.10;;
75169;SDS011;63749;49.186;9.222;2023-04-06T03:09:55;25.53;;;11.80;;
75169;SDS011;63749;49.186;9.222;2023-04-06T03:12:20;23.60;;;12.10;;
75169;SDS011;63749;49.186;9.222;2023-04-06T03:14:45;25.73;;;12.10;;
75169;SDS011;63749;49.186;9.222;2023-04-06T03:17:11;24.67;;;12.10;;
75169;SDS011;63749;49.186;9.222;2023-04-06T03:19:36;24.33;;;11.33;;
75169;SDS011;63749;49.186;9.222;2023-04-06T03:22:02;26.13;;;11.00;;
75169;SDS011;63749;49.186;9.222;2023-04-06T03:24:27;24.27;;;11.47;;
75169;SDS011;63749;49.186;9.222;2023-04-06T03:26:53;22.97;;;11.63;;
75169;SDS011;63749;49.186;9.222;2023-04-06T03:29:18;24.23;;;11.67;;
75169;SDS011;63749;49.186;9.222;2023-04-06T03:31:43;22.80;;;11.03;;
75169;SDS011;63749;49.186;9.222;2023-04-06T03:34:09;24.43;;;11.93;;
75169;SDS011;63749;49.186;9.222;2023-04-06T03:36:35;24.73;;;11.73;;
75169;SDS011;63749;49.186;9.222;2023-04-06T03:39:00;24.45;;;11.32;;
75169;SDS011;63749;49.186;9.222;2023-04-06T03:41:26;23.73;;;11.63;;
75169;SDS011;63749;49.186;9.222;2023-04-06T03:43:52;22.80;;;11.40;;
75169;SDS011;63749;49.186;9.222;2023-04-06T03:46:17;24.85;;;11.80;;
75169;SDS011;63749;49.186;9.222;2023-04-06T03:48:43;24.60;;;12.17;;
75169;SDS011;63749;49.186;9.222;2023-04-06T03:51:08;24.63;;;11.85;;
75169;SDS011;63749;49.186;9.222;2023-04-06T03:53:34;23.73;;;11.80;;
75169;SDS011;63749;49.186;9.222;2023-04-06T03:55:59;30.27;;;11.60;;
75169;SDS011;63749;49.186;9.222;2023-04-06T03:58:25;24.23;;;12.40;;
75169;SDS011;63749;49.186;9.222;2023-04-06T04:00:50;24.33;;;11.67;;
75169;SDS011;63749;49.186;9.222;2023-04-06T04:03:15;24.57;;;11.40;;
75169;SDS011;63749;49.186;9.222;2023-04-06T04:05:41;25.60;;;12.10;;
75169;SDS011;63749;49.186;9.222;2023-04-06T04:08:06;24.73;;;12.45;;
75169;SDS011;63749;49.186;9.222;2023-04-06T04:10:33;22.77;;;11.97;;
75169;SDS011;63749;49.186;9.222;2023-04-06T04:12:58;24.27;;;12.15;;
75169;SDS011;63749;49.186;9.222;2023-04-06T04:15:24;24.00;;;12.23;;
75169;SDS011;63749;49.186;9.222;2023-04-06T04:17:49;25.40;;;12.63;;
75169;SDS011;63749;49.186;9.222;2023-04-06T04:20:15;24.98;;;12.40;;
75169;SDS011;63749;49.186;9.222;2023-04-06T04:22:41;26.97;;;12.93;;
75169;SDS011;63749;49.186;9.222;2023-04-06T04:25:07;24.37;;;12.07;;
75169;SDS011;63749;49.186;9.222;2023-04-06T04:27:33;26.30;;;11.90;;
75169;SDS011;63749;49.186;9.222;2023-04-06T04:29:58;30.23;;;13.40;;
75169;SDS011;63749;49.186;9.222;2023-04-06T04:32:23;28.83;;;13.70;;
75169;SDS011;63749;49.186;9.222;2023-04-06T04:34:52;29.40;;;13.77;;
75169;SDS011;63749;49.186;9.222;2023-04-06T04:37:18;31.00;;;14.07;;
75169;SDS011;63749;49.186;9.222;2023-04-06T04:39:44;28.85;;;12.88;;
75169;SDS011;63749;49.186;9.222;2023-04-06T04:42:10;26.90;;;13.60;;
75169;SDS011;63749;49.186;9.222;2023-04-06T04:44:35;28.55;;;13.70;;
75169;SDS011;63749;49.186;9.222;2023-04-06T04:47:01;28.13;;;13.63;;
75169;SDS011;63749;49.186;9.222;2023-04-06T04:49:26;26.40;;;12.80;;
75169;SDS011;63749;49.186;9.222;2023-04-06T04:51:51;28.40;;;13.07;;
75169;SDS011;63749;49.186;9.222;2023-04-06T04:54:17;26.27;;;12.60;;
75169;SDS011;63749;49.186;9.222;2023-04-06T04:56:44;24.50;;;12.73;;
75169;SDS011;63749;49.186;9.222;2023-04-06T04:59:10;26.50;;;12.63;;
75169;SDS011;63749;49.186;9.222;2023-04-06T05:01:35;27.75;;;12.93;;
75169;SDS011;63749;49.186;9.222;2023-04-06T05:04:00;25.63;;;12.47;;
75169;SDS011;63749;49.186;9.222;2023-04-06T05:06:26;26.40;;;12.53;;
75169;SDS011;63749;49.186;9.222;2023-04-06T05:08:51;25.17;;;12.93;;
75169;SDS011;63749;49.186;9.222;2023-04-06T05:11:16;24.87;;;11.87;;
75169;SDS011;63749;49.186;9.222;2023-04-06T05:13:42;35.37;;;12.37;;
75169;SDS011;63749;49.186;9.222;2023-04-06T05:16:07;25.87;;;12.07;;
75169;SDS011;63749;49.186;9.222;2023-04-06T05:18:33;24.58;;;12.43;;
75169;SDS011;63749;49.186;9.222;2023-04-06T05:20:58;28.50;;;12.40;;
75169;SDS011;63749;49.186;9.222;2023-04-06T05:23:24;26.77;;;12.95;;
75169;SDS011;63749;49.186;9.222;2023-04-06T05:25:49;25.57;;;12.83;;
75169;SDS011;63749;49.186;9.222;2023-04-06T05:28:15;25.23;;;12.52;;
75169;SDS011;63749;49.186;9.222;2023-04-06T05:30:42;27.80;;;12.40;;
75169;SDS011;63749;49.186;9.222;2023-04-06T05:33:08;25.23;;;12.65;;
75169;SDS011;63749;49.186;9.222;2023-04-06T05:35:34;27.27;;;12.57;;
75169;SDS011;63749;49.186;9.222;2023-04-06T05:37:59;29.40;;;13.73;;
75169;SDS011;63749;49.186;9.222;2023-04-06T05:40:25;26.20;;;12.80;;
75169;SDS011;63749;49.186;9.222;2023-04-06T05:42:51;27.83;;;12.45;;
75169;SDS011;63749;49.186;9.222;2023-04-06T05:45:16;26.17;;;12.60;;
75169;SDS011;63749;49.186;9.222;2023-04-06T05:47:43;22.67;;;12.35;;
75169;SDS011;63749;49.186;9.222;2023-04-06T05:50:14;23.80;;;12.20;;
75169;SDS011;63749;49.186;9.222;2023-04-06T05:52:40;26.98;;;12.68;;
75169;SDS011;63749;49.186;9.222;2023-04-06T05:55:08;26.80;;;12.67;;
75169;SDS011;63749;49.186;9.222;2023-04-06T05:57:34;26.95;;;13.38;;
75169;SDS011;63749;49.186;9.222;2023-04-06T05:59:59;26.23;;;12.10;;
75169;SDS011;63749;49.186;9.222;2023-04-06T06:02:25;27.20;;;13.13;;
75169;SDS011;63749;49.186;9.222;2023-04-06T06:04:51;23.87;;;12.03;;
75169;SDS011;63749;49.186;9.222;2023-04-06T06:07:16;26.63;;;13.20;;
75169;SDS011;63749;49.186;9.222;2023-04-06T06:09:42;24.47;;;13.43;;
75169;SDS011;63749;49.186;9.222;2023-04-06T06:12:07;27.50;;;13.67;;
75169;SDS011;63749;49.186;9.222;2023-04-06T06:14:32;26.97;;;13.70;;
75169;SDS011;63749;49.186;9.222;2023-04-06T06:16:58;30.37;;;14.03;;
75169;SDS011;63749;49.186;9.222;2023-04-06T06:19:23;27.40;;;13.87;;
75169;SDS011;63749;49.186;9.222;2023-04-06T06:21:49;30.47;;;15.23;;
75169;SDS011;63749;49.186;9.222;2023-04-06T06:24:14;27.23;;;14.10;;
75169;SDS011;63749;49.186;9.222;2023-04-06T06:26:40;23.67;;;12.50;;
75169;SDS011;63749;49.186;9.222;2023-04-06T06:29:06;24.73;;;12.80;;
75169;SDS011;63749;49.186;9.222;2023-04-06T06:31:31;23.50;;;12.90;;
75169;SDS011;63749;49.186;9.222;2023-04-06T06:33:57;22.83;;;12.53;;
75169;SDS011;63749;49.186;9.222;2023-04-06T06:36:22;24.73;;;12.57;;
75169;SDS011;63749;49.186;9.222;2023-04-06T06:38:47;21.93;;;12.30;;
75169;SDS011;63749;49.186;9.222;2023-04-06T06:41:13;22.73;;;12.80;;
75169;SDS011;63749;49.186;9.222;2023-04-06T06:43:38;34.50;;;13.40;;
75169;SDS011;63749;49.186;9.222;2023-04-06T06:46:04;33.10;;;14.43;;
75169;SDS011;63749;49.186;9.222;2023-04-06T06:48:29;30.13;;;13.95;;
75169;SDS011;63749;49.186;9.222;2023-04-06T06:50:55;25.00;;;13.77;;
75169;SDS011;63749;49.186;9.222;2023-04-06T06:53:22;26.35;;;14.23;;
75169;SDS011;63749;49.186;9.222;2023-04-06T06:55:48;27.00;;;12.65;;
75169;SDS011;63749;49.186;9.222;2023-04-06T06:58:14;33.33;;;13.47;;
75169;SDS011;63749;49.186;9.222;2023-04-06T07:00:39;30.80;;;15.02;;
75169;SDS011;63749;49.186;9.222;2023-04-06T07:03:05;28.47;;;13.67;;
75169;SDS011;63749;49.186;9.222;2023-04-06T07:05:30;30.07;;;14.30;;
75169;SDS011;63749;49.186;9.222;2023-04-06T07:07:56;26.02;;;13.48;;
75169;SDS011;63749;49.186;9.222;2023-04-06T07:10:21;26.63;;;14.20;;
75169;SDS011;63749;49.186;9.222;2023-04-06T07:12:47;28.43;;;13.77;;
75169;SDS011;63749;49.186;9.222;2023-04-06T07:15:13;25.40;;;13.50;;
75169;SDS011;63749;49.186;9.222;2023-04-06T07:17:38;24.37;;;13.50;;
75169;SDS011;63749;49.186;9.222;2023-04-06T07:20:06;26.98;;;13.75;;
75169;SDS011;63749;49.186;9.222;2023-04-06T07:22:32;23.38;;;13.55;;
75169;SDS011;63749;49.186;9.222;2023-04-06T07:24:57;25.23;;;13.83;;
75169;SDS011;63749;49.186;9.222;2023-04-06T07:27:23;23.17;;;13.47;;
75169;SDS011;63749;49.186;9.222;2023-04-06T07:29:48;29.87;;;14.37;;
75169;SDS011;63749;49.186;9.222;2023-04-06T07:32:13;36.10;;;14.23;;
75169;SDS011;63749;49.186;9.222;2023-04-06T07:34:39;24.70;;;13.60;;
75169;SDS011;63749;49.186;9.222;2023-04-06T07:37:05;24.03;;;13.00;;
75169;SDS011;63749;49.186;9.222;2023-04-06T07:39:30;23.92;;;13.73;;
75169;SDS011;63749;49.186;9.222;2023-04-06T07:41:56;25.33;;;14.33;;
75169;SDS011;63749;49.186;9.222;2023-04-06T07:44:21;25.60;;;14.13;;
75169;SDS011;63749;49.186;9.222;2023-04-06T07:46:47;26.07;;;13.77;;
75169;SDS011;63749;49.186;9.222;2023-04-06T07:49:12;23.73;;;12.98;;
75169;SDS011;63749;49.186;9.222;2023-04-06T07:51:38;24.63;;;12.63;;
75169;SDS011;63749;49.186;9.222;2023-04-06T07:54:04;27.45;;;14.10;;
75169;SDS011;63749;49.186;9.222;2023-04-06T07:56:30;28.07;;;13.57;;
75169;SDS011;63749;49.186;9.222;2023-04-06T07:58:55;22.08;;;12.52;;
75169;SDS011;63749;49.186;9.222;2023-04-06T08:01:22;23.63;;;13.23;;
75169;SDS011;63749;49.186;9.222;2023-04-06T08:03:47;25.38;;;13.20;;
75169;SDS011;63749;49.186;9.222;2023-04-06T08:06:13;25.60;;;13.03;;
75169;SDS011;63749;49.186;9.222;2023-04-06T08:08:38;29.67;;;13.47;;
75169;SDS011;63749;49.186;9.222;2023-04-06T08:11:04;23.50;;;12.97;;
75169;SDS011;63749;49.186;9.222;2023-04-06T08:13:29;22.27;;;13.07;;
75169;SDS011;63749;49.186;9.222;2023-04-06T08:15:55;25.13;;;12.57;;
75169;SDS011;63749;49.186;9.222;2023-04-06T08:18:21;21.30;;;13.20;;
75169;SDS011;63749;49.186;9.222;2023-04-06T08:20:47;21.88;;;12.82;;
75169;SDS011;63749;49.186;9.222;2023-04-06T08:23:14;21.17;;;12.40;;
75169;SDS011;63749;49.186;9.222;2023-04-06T08:25:39;21.48;;;12.43;;
75169;SDS011;63749;49.186;9.222;2023-04-06T08:28:05;19.23;;;12.50;;
75169;SDS011;63749;49.186;9.222;2023-04-06T08:30:30;21.80;;;11.77;;
75169;SDS011;63749;49.186;9.222;2023-04-06T08:32:55;22.47;;;12.63;;
75169;SDS011;63749;49.186;9.222;2023-04-06T08:35:21;21.10;;;12.60;;
75169;SDS011;63749;49.186;9.222;2023-04-06T08:37:46;23.87;;;12.80;;
75169;SDS011;63749;49.186;9.222;2023-04-06T08:40:12;19.83;;;12.47;;
75169;SDS011;63749;49.186;9.222;2023-04-06T08:42:44;21.35;;;12.27;;
75169;SDS011;63749;49.186;9.222;2023-04-06T08:45:19;21.40;;;12.50;;
75169;SDS011;63749;49.186;9.222;2023-04-06T08:47:46;22.20;;;12.60;;
75169;SDS011;63749;49.186;9.222;2023-04-06T08:50:13;22.13;;;11.73;;
75169;SDS011;63749;49.186;9.222;2023-04-06T08:52:41;24.73;;;13.10;;
75169;SDS011;63749;49.186;9.222;2023-04-06T08:55:12;22.60;;;11.77;;
75169;SDS011;63749;49.186;9.222;2023-04-06T08:57:37;22.23;;;12.60;;
75169;SDS011;63749;49.186;9.222;2023-04-06T09:00:03;25.13;;;12.80;;
75169;SDS011;63749;49.186;9.222;2023-04-06T09:02:30;21.70;;;11.77;;
75169;SDS011;63749;49.186;9.222;2023-04-06T09:04:56;20.53;;;11.63;;
75169;SDS011;63749;49.186;9.222;2023-04-06T09:07:22;21.48;;;12.60;;
75169;SDS011;63749;49.186;9.222;2023-04-06T09:09:48;24.23;;;12.50;;
75169;SDS011;63749;49.186;9.222;2023-04-06T09:12:27;21.87;;;11.90;;
75169;SDS011;63749;49.186;9.222;2023-04-06T09:14:53;21.10;;;11.30;;
75169;SDS011;63749;49.186;9.222;2023-04-06T09:17:28;24.23;;;12.18;;
75169;SDS011;63749;49.186;9.222;2023-04-06T09:19:55;23.67;;;11.95;;
75169;SDS011;63749;49.186;9.222;2023-04-06T09:22:21;27.73;;;12.10;;
75169;SDS011;63749;49.186;9.222;2023-04-06T09:24:51;24.40;;;12.20;;
75169;SDS011;63749;49.186;9.222;2023-04-06T09:27:18;25.73;;;11.85;;
75169;SDS011;63749;49.186;9.222;2023-04-06T09:32:50;21.00;;;11.77;;
75169;SDS011;63749;49.186;9.222;2023-04-06T09:35:17;27.03;;;12.13;;
75169;SDS011;63749;49.186;9.222;2023-04-06T09:37:45;21.52;;;11.82;;
75169;SDS011;63749;49.186;9.222;2023-04-06T09:40:12;20.33;;;11.45;;
75169;SDS011;63749;49.186;9.222;2023-04-06T09:42:39;22.52;;;11.30;;
75169;SDS011;63749;49.186;9.222;2023-04-06T09:45:06;23.20;;;11.48;;
75169;SDS011;63749;49.186;9.222;2023-04-06T09:47:32;19.67;;;11.23;;
75169;SDS011;63749;49.186;9.222;2023-04-06T09:50:00;21.35;;;10.50;;
75169;SDS011;63749;49.186;9.222;2023-04-06T09:52:32;18.60;;;10.48;;
75169;SDS011;63749;49.186;9.222;2023-04-06T09:55:02;19.60;;;10.55;;
75169;SDS011;63749;49.186;9.222;2023-04-06T09:57:31;18.52;;;10.80;;
75169;SDS011;63749;49.186;9.222;2023-04-06T10:00:04;20.60;;;10.73;;
75169;SDS011;63749;49.186;9.222;2023-04-06T10:02:45;17.27;;;10.57;;
75169;SDS011;63749;49.186;9.222;2023-04-06T10:07:53;18.95;;;10.25;;
75169;SDS011;63749;49.186;9.222;2023-04-06T10:10:21;21.15;;;10.23;;
75169;SDS011;63749;49.186;9.222;2023-04-06T10:12:47;18.50;;;10.47;;
75169;SDS011;63749;49.186;9.222;2023-04-06T10:15:13;20.05;;;9.15;;
75169;SDS011;63749;49.186;9.222;2023-04-06T10:17:38;19.10;;;9.33;;
75169;SDS011;63749;49.186;9.222;2023-04-06T10:20:07;19.57;;;9.40;;
75169;SDS011;63749;49.186;9.222;2023-04-06T10:22:36;14.98;;;9.23;;
75169;SDS011;63749;49.186;9.222;2023-04-06T10:25:03;23.60;;;9.30;;
75169;SDS011;63749;49.186;9.222;2023-04-06T10:27:29;15.15;;;8.98;;
75169;SDS011;63749;49.186;9.222;2023-04-06T10:30:00;13.87;;;8.37;;
75169;SDS011;63749;49.186;9.222;2023-04-06T10:32:34;13.98;;;8.32;;
75169;SDS011;63749;49.186;9.222;2023-04-06T10:35:07;13.25;;;8.65;;
75169;SDS011;63749;49.186;9.222;2023-04-06T10:37:46;14.88;;;8.40;;
75169;SDS011;63749;49.186;9.222;2023-04-06T10:40:19;15.55;;;8.15;;
75169;SDS011;63749;49.186;9.222;2023-04-06T10:42:49;11.83;;;7.17;;
75169;SDS011;63749;49.186;9.222;2023-04-06T10:45:22;13.93;;;7.13;;
75169;SDS011;63749;49.186;9.222;2023-04-06T10:47:49;11.20;;;6.82;;
75169;SDS011;63749;49.186;9.222;2023-04-06T10:50:17;13.60;;;7.57;;
75169;SDS011;63749;49.186;9.222;2023-04-06T10:52:45;10.60;;;5.78;;
75169;SDS011;63749;49.186;9.222;2023-04-06T10:55:12;12.13;;;6.40;;
75169;SDS011;63749;49.186;9.222;2023-04-06T10:57:39;11.20;;;6.45;;
75169;SDS011;63749;49.186;9.222;2023-04-06T11:00:05;12.57;;;6.82;;
75169;SDS011;63749;49.186;9.222;2023-04-06T11:02:31;12.17;;;7.03;;
75169;SDS011;63749;49.186;9.222;2023-04-06T11:04:57;11.10;;;6.60;;
75169;SDS011;63749;49.186;9.222;2023-04-06T11:07:26;9.98;;;6.28;;
75169;SDS011;63749;49.186;9.222;2023-04-06T11:09:54;9.75;;;5.97;;
75169;SDS011;63749;49.186;9.222;2023-04-06T11:12:26;10.30;;;6.13;;
75169;SDS011;63749;49.186;9.222;2023-04-06T11:14:56;10.75;;;6.30;;
75169;SDS011;63749;49.186;9.222;2023-04-06T11:17:28;12.60;;;6.63;;
75169;SDS011;63749;49.186;9.222;2023-04-06T11:19:54;11.10;;;6.43;;
75169;SDS011;63749;49.186;9.222;2023-04-06T11:22:20;12.67;;;7.17;;
75169;SDS011;63749;49.186;9.222;2023-04-06T11:24:45;11.80;;;7.13;;
75169;SDS011;63749;49.186;9.222;2023-04-06T11:27:11;10.53;;;6.40;;
75169;SDS011;63749;49.186;9.222;2023-04-06T11:29:37;11.73;;;7.10;;
75169;SDS011;63749;49.186;9.222;2023-04-06T11:32:05;11.67;;;6.87;;
75169;SDS011;63749;49.186;9.222;2023-04-06T11:34:41;12.43;;;7.40;;
75169;SDS011;63749;49.186;9.222;2023-04-06T11:37:10;13.02;;;7.43;;
75169;SDS011;63749;49.186;9.222;2023-04-06T11:39:54;12.68;;;7.50;;
75169;SDS011;63749;49.186;9.222;2023-04-06T11:42:25;10.85;;;7.15;;
75169;SDS011;63749;49.186;9.222;2023-04-06T11:44:57;12.43;;;7.30;;
75169;SDS011;63749;49.186;9.222;2023-04-06T11:47:30;12.23;;;7.80;;
75169;SDS011;63749;49.186;9.222;2023-04-06T11:50:06;12.73;;;7.82;;
75169;SDS011;63749;49.186;9.222;2023-04-06T11:52:36;12.80;;;7.90;;
75169;SDS011;63749;49.186;9.222;2023-04-06T11:55:16;11.65;;;7.97;;
75169;SDS011;63749;49.186;9.222;2023-04-06T11:57:43;12.93;;;8.27;;
75169;SDS011;63749;49.186;9.222;2023-04-06T12:00:10;13.88;;;8.23;;
75169;SDS011;63749;49.186;9.222;2023-04-06T12:02:37;13.38;;;8.10;;
75169;SDS011;63749;49.186;9.222;2023-04-06T12:05:03;12.05;;;7.90;;
75169;SDS011;63749;49.186;9.222;2023-04-06T12:07:30;15.32;;;8.55;;
75169;SDS011;63749;49.186;9.222;2023-04-06T12:09:56;12.70;;;7.80;;
75169;SDS011;63749;49.186;9.222;2023-04-06T12:12:21;13.25;;;7.82;;
75169;SDS011;63749;49.186;9.222;2023-04-06T12:14:47;10.77;;;7.63;;
75169;SDS011;63749;49.186;9.222;2023-04-06T12:17:12;12.07;;;8.00;;
75169;SDS011;63749;49.186;9.222;2023-04-06T12:19:38;11.07;;;7.63;;
75169;SDS011;63749;49.186;9.222;2023-04-06T12:22:03;12.07;;;7.97;;
75169;SDS011;63749;49.186;9.222;2023-04-06T12:24:29;12.93;;;8.20;;
75169;SDS011;63749;49.186;9.222;2023-04-06T12:26:54;14.40;;;8.32;;
75169;SDS011;63749;49.186;9.222;2023-04-06T12:29:20;13.00;;;8.13;;
75169;SDS011;63749;49.186;9.222;2023-04-06T12:31:45;14.13;;;9.10;;
75169;SDS011;63749;49.186;9.222;2023-04-06T12:34:11;12.03;;;8.10;;
75169;SDS011;63749;49.186;9.222;2023-04-06T12:36:37;10.60;;;7.67;;
75169;SDS011;63749;49.186;9.222;2023-04-06T12:39:03;11.90;;;7.80;;
75169;SDS011;63749;49.186;9.222;2023-04-06T12:41:29;12.40;;;8.10;;
75169;SDS011;63749;49.186;9.222;2023-04-06T12:43:55;11.63;;;8.27;;
75169;SDS011;63749;49.186;9.222;2023-04-06T12:46:20;12.80;;;8.20;;
75169;SDS011;63749;49.186;9.222;2023-04-06T12:48:46;13.40;;;8.25;;
75169;SDS011;63749;49.186;9.222;2023-04-06T12:51:12;11.98;;;7.78;;
75169;SDS011;63749;49.186;9.222;2023-04-06T12:53:38;11.87;;;8.37;;
75169;SDS011;63749;49.186;9.222;2023-04-06T12:56:10;14.43;;;8.57;;
75169;SDS011;63749;49.186;9.222;2023-04-06T12:58:43;15.88;;;9.02;;
75169;SDS011;63749;49.186;9.222;2023-04-06T13:01:09;12.80;;;8.77;;
75169;SDS011;63749;49.186;9.222;2023-04-06T13:03:35;12.35;;;8.98;;
75169;SDS011;63749;49.186;9.222;2023-04-06T13:06:01;12.82;;;9.18;;
75169;SDS011;63749;49.186;9.222;2023-04-06T13:08:27;12.27;;;8.70;;
75169;SDS011;63749;49.186;9.222;2023-04-06T13:10:52;13.50;;;8.77;;
75169;SDS011;63749;49.186;9.222;2023-04-06T13:13:28;11.47;;;8.97;;
75169;SDS011;63749;49.186;9.222;2023-04-06T13:15:55;12.30;;;8.90;;
75169;SDS011;63749;49.186;9.222;2023-04-06T13:18:24;12.43;;;9.02;;
75169;SDS011;63749;49.186;9.222;2023-04-06T13:20:50;12.07;;;8.95;;
75169;SDS011;63749;49.186;9.222;2023-04-06T13:23:15;12.17;;;8.50;;
75169;SDS011;63749;49.186;9.222;2023-04-06T13:25:41;12.93;;;9.83;;
75169;SDS011;63749;49.186;9.222;2023-04-06T13:28:07;13.38;;;9.70;;
75169;SDS011;63749;49.186;9.222;2023-04-06T13:30:33;10.10;;;8.33;;
75169;SDS011;63749;49.186;9.222;2023-04-06T13:32:58;12.80;;;8.82;;
75169;SDS011;63749;49.186;9.222;2023-04-06T13:35:24;12.27;;;9.00;;
75169;SDS011;63749;49.186;9.222;2023-04-06T13:37:49;12.80;;;8.40;;
75169;SDS011;63749;49.186;9.222;2023-04-06T13:40:17;11.88;;;9.40;;
75169;SDS011;63749;49.186;9.222;2023-04-06T13:42:42;11.13;;;8.50;;
75169;SDS011;63749;49.186;9.222;2023-04-06T13:45:10;11.82;;;9.35;;
75169;SDS011;63749;49.186;9.222;2023-04-06T13:47:35;13.40;;;9.37;;
75169;SDS011;63749;49.186;9.222;2023-04-06T13:50:01;12.70;;;9.32;;
75169;SDS011;63749;49.186;9.222;2023-04-06T13:52:27;10.90;;;9.30;;
75169;SDS011;63749;49.186;9.222;2023-04-06T13:54:53;11.52;;;8.63;;
75169;SDS011;63749;49.186;9.222;2023-04-06T13:57:18;14.93;;;9.43;;
75169;SDS011;63749;49.186;9.222;2023-04-06T13:59:43;12.00;;;8.93;;
75169;SDS011;63749;49.186;9.222;2023-04-06T14:02:09;12.43;;;9.23;;
75169;SDS011;63749;49.186;9.222;2023-04-06T14:04:35;13.43;;;9.57;;
75169;SDS011;63749;49.186;9.222;2023-04-06T14:07:02;10.95;;;8.32;;
75169;SDS011;63749;49.186;9.222;2023-04-06T14:09:28;12.93;;;9.30;;
75169;SDS011;63749;49.186;9.222;2023-04-06T14:11:54;14.32;;;9.35;;
75169;SDS011;63749;49.186;9.222;2023-04-06T14:14:20;11.67;;;8.67;;
75169;SDS011;63749;49.186;9.222;2023-04-06T14:16:46;12.88;;;9.57;;
75169;SDS011;63749;49.186;9.222;2023-04-06T14:19:13;13.90;;;9.90;;
75169;SDS011;63749;49.186;9.222;2023-04-06T14:21:41;15.52;;;10.13;;
75169;SDS011;63749;49.186;9.222;2023-04-06T14:24:08;14.20;;;10.50;;
75169;SDS011;63749;49.186;9.222;2023-04-06T14:26:37;12.83;;;9.87;;